Airfield :
LOGIN :

Register | Disclaimer

   EN    FR    IT 

 










Legend :    VFR   Marginal VFR   IFR   Intensive IFR   Very Intensive IFR
Visi :
Ceiling :
>= 8 km
>= 3000ft
5 to 8 km
1000 to 3000 ft
1500m to 5 km
500 to 1000 ft
800 to 1500m
200 to 500 ft
< 800m
< 200 ft
Symbols :   Thunderstorms  Fog  Heavy snow  Heavy precipitations  Wind > 20 kt
SIGMETs :     Misc.  Thunderstorms  Icing  Turbulence  Mountain Waves  Volcanic Ashes






- Airport Elevation : 284 ft


EGUW - RAF Wattisham

CURRENT METAR :
  • 061920Z AUTO 14004KT 9999 NCD 04/M00 Q1039

EXPIRED METARs :
  • 061850Z AUTO 11003KT 9999 NCD 05/00 Q1039
  • 061820Z AUTO 09004KT 9999 NCD 05/00 Q1039
  • 061750Z 09005KT CAVOK 06/00 Q1039 TEMPO 6000 BR RMK BLU TEMPO WHT
  • 061720Z 09004KT CAVOK 06/01 Q1039 TEMPO 6000 BR RMK BLU TEMPO WHT
  • 061650Z 31006KT CAVOK 05/01 Q1038 NOSIG RMK BLU BLU

TAF TAF EGUW
Valid from the 06 at 15:00 until the 07 at 00:00 UTC


061335Z 0615/0624 26007KT CAVOK
TEMPO 0619/0624 6000 BR
PROB30
TEMPO 0623/0624 3000



MET'MAP, your aeronautical weather chart ! - Copyright ORBIFLY December 2007 - Disclaimer

ORBIFLY MET'MAP TEAM :

Programming & Development : Alexandra Zaïnal
Original concept : Baudouin d'Aumeries
Technical & hardware support : Manuel Goepfert
Assistance : Marc-Olivier Méhu




SOURCES & CREDITS :

   NOAA